sensor_id;sensor_type;location;lat;lon;timestamp;temperature;humidity
39951;DHT22;25629;51.444;-2.606;2024-01-10T00:00:22;1.10;99.90
39951;DHT22;25629;51.444;-2.606;2024-01-10T00:02:48;1.10;99.90
39951;DHT22;25629;51.444;-2.606;2024-01-10T00:05:13;1.20;99.90
39951;DHT22;25629;51.444;-2.606;2024-01-10T00:07:39;1.10;99.90
39951;DHT22;25629;51.444;-2.606;2024-01-10T00:10:04;1.20;99.90
39951;DHT22;25629;51.444;-2.606;2024-01-10T00:12:30;1.20;99.90
39951;DHT22;25629;51.444;-2.606;2024-01-10T00:15:00;1.20;99.90
39951;DHT22;25629;51.444;-2.606;2024-01-10T00:17:26;1.20;99.90
39951;DHT22;25629;51.444;-2.606;2024-01-10T00:19:51;1.30;99.90
39951;DHT22;25629;51.444;-2.606;2024-01-10T00:22:17;1.30;99.90
39951;DHT22;25629;51.444;-2.606;2024-01-10T00:24:42;1.30;99.90
39951;DHT22;25629;51.444;-2.606;2024-01-10T00:27:08;1.30;99.90
39951;DHT22;25629;51.444;-2.606;2024-01-10T00:29:35;1.40;99.90
39951;DHT22;25629;51.444;-2.606;2024-01-10T00:32:00;1.30;99.90
39951;DHT22;25629;51.444;-2.606;2024-01-10T00:34:26;1.30;99.90
39951;DHT22;25629;51.444;-2.606;2024-01-10T00:36:52;1.30;99.90
39951;DHT22;25629;51.444;-2.606;2024-01-10T00:39:17;1.30;99.90
39951;DHT22;25629;51.444;-2.606;2024-01-10T00:41:43;1.40;99.90
39951;DHT22;25629;51.444;-2.606;2024-01-10T00:44:08;1.30;99.90
39951;DHT22;25629;51.444;-2.606;2024-01-10T00:46:34;1.40;99.90
39951;DHT22;25629;51.444;-2.606;2024-01-10T00:49:00;1.40;99.90
39951;DHT22;25629;51.444;-2.606;2024-01-10T00:51:25;1.30;99.90
39951;DHT22;25629;51.444;-2.606;2024-01-10T00:53:51;1.30;1.00
39951;DHT22;25629;51.444;-2.606;2024-01-10T00:56:16;1.40;1.00
39951;DHT22;25629;51.444;-2.606;2024-01-10T00:58:42;1.40;1.00
39951;DHT22;25629;51.444;-2.606;2024-01-10T01:01:07;1.50;99.90
39951;DHT22;25629;51.444;-2.606;2024-01-10T01:03:33;1.50;99.90
39951;DHT22;25629;51.444;-2.606;2024-01-10T01:05:59;1.50;99.90
39951;DHT22;25629;51.444;-2.606;2024-01-10T01:08:24;1.50;99.90
39951;DHT22;25629;51.444;-2.606;2024-01-10T01:10:50;1.60;99.90
39951;DHT22;25629;51.444;-2.606;2024-01-10T01:13:16;1.60;99.90
39951;DHT22;25629;51.444;-2.606;2024-01-10T01:15:43;1.60;99.90
39951;DHT22;25629;51.444;-2.606;2024-01-10T01:18:08;1.60;99.90
39951;DHT22;25629;51.444;-2.606;2024-01-10T01:20:35;1.70;99.90
39951;DHT22;25629;51.444;-2.606;2024-01-10T01:23:00;1.70;99.90
39951;DHT22;25629;51.444;-2.606;2024-01-10T01:25:26;1.70;99.90
39951;DHT22;25629;51.444;-2.606;2024-01-10T01:27:52;1.80;99.90
39951;DHT22;25629;51.444;-2.606;2024-01-10T01:30:17;1.80;99.90
39951;DHT22;25629;51.444;-2.606;2024-01-10T01:32:43;1.90;99.90
39951;DHT22;25629;51.444;-2.606;2024-01-10T01:35:08;1.90;99.90
39951;DHT22;25629;51.444;-2.606;2024-01-10T01:37:34;1.90;99.90
39951;DHT22;25629;51.444;-2.606;2024-01-10T01:40:00;1.90;99.90
39951;DHT22;25629;51.444;-2.606;2024-01-10T01:42:25;2.00;99.90
39951;DHT22;25629;51.444;-2.606;2024-01-10T01:44:51;2.00;99.90
39951;DHT22;25629;51.444;-2.606;2024-01-10T01:47:16;2.00;99.90
39951;DHT22;25629;51.444;-2.606;2024-01-10T01:49:42;2.00;99.90
39951;DHT22;25629;51.444;-2.606;2024-01-10T01:52:08;2.00;99.90
39951;DHT22;25629;51.444;-2.606;2024-01-10T01:54:34;2.00;99.90
39951;DHT22;25629;51.444;-2.606;2024-01-10T01:57:00;1.90;99.90
39951;DHT22;25629;51.444;-2.606;2024-01-10T01:59:25;1.90;99.90
39951;DHT22;25629;51.444;-2.606;2024-01-10T02:01:52;1.90;99.90
39951;DHT22;25629;51.444;-2.606;2024-01-10T02:04:19;1.90;99.90
39951;DHT22;25629;51.444;-2.606;2024-01-10T02:06:45;1.90;99.90
39951;DHT22;25629;51.444;-2.606;2024-01-10T02:09:10;2.00;99.90
39951;DHT22;25629;51.444;-2.606;2024-01-10T02:11:36;1.90;99.90
39951;DHT22;25629;51.444;-2.606;2024-01-10T02:14:02;2.00;99.90
39951;DHT22;25629;51.444;-2.606;2024-01-10T02:16:27;1.90;99.90
39951;DHT22;25629;51.444;-2.606;2024-01-10T02:18:53;1.90;99.90
39951;DHT22;25629;51.444;-2.606;2024-01-10T02:21:22;1.90;99.90
39951;DHT22;25629;51.444;-2.606;2024-01-10T02:23:48;1.90;99.90
39951;DHT22;25629;51.444;-2.606;2024-01-10T02:26:14;1.80;99.90
39951;DHT22;25629;51.444;-2.606;2024-01-10T02:28:40;1.80;99.90
39951;DHT22;25629;51.444;-2.606;2024-01-10T02:31:05;1.80;1.00
39951;DHT22;25629;51.444;-2.606;2024-01-10T02:33:32;1.80;1.00
39951;DHT22;25629;51.444;-2.606;2024-01-10T02:35:58;1.80;1.00
39951;DHT22;25629;51.444;-2.606;2024-01-10T02:38:23;1.80;1.00
39951;DHT22;25629;51.444;-2.606;2024-01-10T02:40:49;1.80;1.00
39951;DHT22;25629;51.444;-2.606;2024-01-10T02:43:15;1.80;1.00
39951;DHT22;25629;51.444;-2.606;2024-01-10T02:45:41;1.80;1.00
39951;DHT22;25629;51.444;-2.606;2024-01-10T02:48:07;1.80;1.00
39951;DHT22;25629;51.444;-2.606;2024-01-10T02:50:32;1.80;1.00
39951;DHT22;25629;51.444;-2.606;2024-01-10T02:52:58;1.80;1.00
39951;DHT22;25629;51.444;-2.606;2024-01-10T02:55:23;1.80;1.00
39951;DHT22;25629;51.444;-2.606;2024-01-10T02:57:49;1.80;1.00
39951;DHT22;25629;51.444;-2.606;2024-01-10T03:00:15;1.80;1.00
39951;DHT22;25629;51.444;-2.606;2024-01-10T03:02:41;1.80;1.00
39951;DHT22;25629;51.444;-2.606;2024-01-10T03:05:06;1.80;1.00
39951;DHT22;25629;51.444;-2.606;2024-01-10T03:07:32;1.80;1.00
39951;DHT22;25629;51.444;-2.606;2024-01-10T03:09:58;1.80;1.00
39951;DHT22;25629;51.444;-2.606;2024-01-10T03:12:23;1.80;1.00
39951;DHT22;25629;51.444;-2.606;2024-01-10T03:14:49;1.70;1.00
39951;DHT22;25629;51.444;-2.606;2024-01-10T03:17:14;1.70;1.00
39951;DHT22;25629;51.444;-2.606;2024-01-10T03:19:40;1.70;1.00
39951;DHT22;25629;51.444;-2.606;2024-01-10T03:22:09;1.70;1.00
39951;DHT22;25629;51.444;-2.606;2024-01-10T03:24:35;1.70;1.00
39951;DHT22;25629;51.444;-2.606;2024-01-10T03:27:01;1.70;1.00
39951;DHT22;25629;51.444;-2.606;2024-01-10T03:29:27;1.70;1.00
39951;DHT22;25629;51.444;-2.606;2024-01-10T03:31:53;1.70;1.00
39951;DHT22;25629;51.444;-2.606;2024-01-10T03:34:18;1.60;1.00
39951;DHT22;25629;51.444;-2.606;2024-01-10T03:36:44;1.60;1.00
39951;DHT22;25629;51.444;-2.606;2024-01-10T03:39:10;1.50;1.00
39951;DHT22;25629;51.444;-2.606;2024-01-10T03:41:35;1.50;1.00
39951;DHT22;25629;51.444;-2.606;2024-01-10T03:44:01;1.40;1.00
39951;DHT22;25629;51.444;-2.606;2024-01-10T03:46:26;1.30;1.00
39951;DHT22;25629;51.444;-2.606;2024-01-10T03:48:52;1.20;1.00
39951;DHT22;25629;51.444;-2.606;2024-01-10T03:51:18;1.10;15.10
39951;DHT22;25629;51.444;-2.606;2024-01-10T03:53:44;1.10;31.40
39951;DHT22;25629;51.444;-2.606;2024-01-10T03:56:11;1.10;40.50
39951;DHT22;25629;51.444;-2.606;2024-01-10T03:58:37;1.10;48.40
39951;DHT22;25629;51.444;-2.606;2024-01-10T04:01:05;1.10;51.30
39951;DHT22;25629;51.444;-2.606;2024-01-10T04:03:32;1.00;51.00
39951;DHT22;25629;51.444;-2.606;2024-01-10T04:05:58;1.10;58.40
39951;DHT22;25629;51.444;-2.606;2024-01-10T04:08:23;1.00;59.10
39951;DHT22;25629;51.444;-2.606;2024-01-10T04:10:49;1.00;59.50
39951;DHT22;25629;51.444;-2.606;2024-01-10T04:13:15;1.00;61.00
39951;DHT22;25629;51.444;-2.606;2024-01-10T04:15:41;1.00;62.40
39951;DHT22;25629;51.444;-2.606;2024-01-10T04:18:06;0.90;64.80
39951;DHT22;25629;51.444;-2.606;2024-01-10T04:20:32;0.90;64.20
39951;DHT22;25629;51.444;-2.606;2024-01-10T04:22:58;0.80;71.90
39951;DHT22;25629;51.444;-2.606;2024-01-10T04:25:23;0.80;72.00
39951;DHT22;25629;51.444;-2.606;2024-01-10T04:27:49;0.80;79.40
39951;DHT22;25629;51.444;-2.606;2024-01-10T04:30:17;0.80;80.00
39951;DHT22;25629;51.444;-2.606;2024-01-10T04:32:43;0.80;83.30
39951;DHT22;25629;51.444;-2.606;2024-01-10T04:35:09;0.80;88.10
39951;DHT22;25629;51.444;-2.606;2024-01-10T04:37:35;0.80;91.00
39951;DHT22;25629;51.444;-2.606;2024-01-10T04:40:01;0.80;91.70
39951;DHT22;25629;51.444;-2.606;2024-01-10T04:42:26;0.80;92.20
39951;DHT22;25629;51.444;-2.606;2024-01-10T04:44:52;0.80;96.00
39951;DHT22;25629;51.444;-2.606;2024-01-10T04:47:18;0.80;97.80
39951;DHT22;25629;51.444;-2.606;2024-01-10T04:49:43;0.80;98.50
39951;DHT22;25629;51.444;-2.606;2024-01-10T04:52:09;0.90;98.70
39951;DHT22;25629;51.444;-2.606;2024-01-10T04:54:34;0.90;99.30
39951;DHT22;25629;51.444;-2.606;2024-01-10T04:57:00;1.00;99.00
39951;DHT22;25629;51.444;-2.606;2024-01-10T04:59:26;0.90;96.60
39951;DHT22;25629;51.444;-2.606;2024-01-10T05:01:51;0.90;99.00
39951;DHT22;25629;51.444;-2.606;2024-01-10T05:04:17;0.90;99.20
39951;DHT22;25629;51.444;-2.606;2024-01-10T05:06:43;1.00;99.90
39951;DHT22;25629;51.444;-2.606;2024-01-10T05:09:08;1.00;99.30
39951;DHT22;25629;51.444;-2.606;2024-01-10T05:11:35;1.00;99.80
39951;DHT22;25629;51.444;-2.606;2024-01-10T05:14:01;1.00;99.90
39951;DHT22;25629;51.444;-2.606;2024-01-10T05:16:26;1.00;99.90
39951;DHT22;25629;51.444;-2.606;2024-01-10T05:18:52;1.00;99.90
39951;DHT22;25629;51.444;-2.606;2024-01-10T05:21:18;1.00;99.90
39951;DHT22;25629;51.444;-2.606;2024-01-10T05:23:43;1.00;99.90
39951;DHT22;25629;51.444;-2.606;2024-01-10T05:26:09;0.90;99.90
39951;DHT22;25629;51.444;-2.606;2024-01-10T05:28:35;0.90;99.90
39951;DHT22;25629;51.444;-2.606;2024-01-10T05:31:00;0.90;99.90
39951;DHT22;25629;51.444;-2.606;2024-01-10T05:33:26;0.90;99.90
39951;DHT22;25629;51.444;-2.606;2024-01-10T05:35:51;0.90;99.90
39951;DHT22;25629;51.444;-2.606;2024-01-10T05:38:17;0.90;99.90
39951;DHT22;25629;51.444;-2.606;2024-01-10T05:40:43;0.90;99.90
39951;DHT22;25629;51.444;-2.606;2024-01-10T05:43:08;0.90;99.90
39951;DHT22;25629;51.444;-2.606;2024-01-10T05:45:35;0.90;99.90
39951;DHT22;25629;51.444;-2.606;2024-01-10T05:48:01;0.90;99.90
39951;DHT22;25629;51.444;-2.606;2024-01-10T05:50:27;0.80;99.90
39951;DHT22;25629;51.444;-2.606;2024-01-10T05:52:53;0.80;99.90
39951;DHT22;25629;51.444;-2.606;2024-01-10T05:55:18;0.90;99.90
39951;DHT22;25629;51.444;-2.606;2024-01-10T05:57:44;0.90;99.90
39951;DHT22;25629;51.444;-2.606;2024-01-10T06:00:10;0.90;99.90
39951;DHT22;25629;51.444;-2.606;2024-01-10T06:02:39;0.90;99.90
39951;DHT22;25629;51.444;-2.606;2024-01-10T06:05:11;0.80;99.90
39951;DHT22;25629;51.444;-2.606;2024-01-10T06:07:37;0.80;99.90
39951;DHT22;25629;51.444;-2.606;2024-01-10T06:10:03;0.80;99.90
39951;DHT22;25629;51.444;-2.606;2024-01-10T06:12:29;0.80;99.90
39951;DHT22;25629;51.444;-2.606;2024-01-10T06:14:54;0.70;99.90
39951;DHT22;25629;51.444;-2.606;2024-01-10T06:17:20;0.70;99.90
39951;DHT22;25629;51.444;-2.606;2024-01-10T06:19:46;0.70;99.90
39951;DHT22;25629;51.444;-2.606;2024-01-10T06:22:11;0.80;99.90
39951;DHT22;25629;51.444;-2.606;2024-01-10T06:24:37;0.80;99.90
39951;DHT22;25629;51.444;-2.606;2024-01-10T06:27:03;0.70;99.90
39951;DHT22;25629;51.444;-2.606;2024-01-10T06:29:30;0.80;99.90
39951;DHT22;25629;51.444;-2.606;2024-01-10T06:31:55;0.80;99.90
39951;DHT22;25629;51.444;-2.606;2024-01-10T06:34:22;0.80;99.90
39951;DHT22;25629;51.444;-2.606;2024-01-10T06:36:48;0.80;99.90
39951;DHT22;25629;51.444;-2.606;2024-01-10T06:39:13;0.70;99.90
39951;DHT22;25629;51.444;-2.606;2024-01-10T06:41:39;0.70;99.90
39951;DHT22;25629;51.444;-2.606;2024-01-10T06:44:04;0.80;99.90
39951;DHT22;25629;51.444;-2.606;2024-01-10T06:46:31;0.80;99.90
39951;DHT22;25629;51.444;-2.606;2024-01-10T06:48:57;0.70;99.90
39951;DHT22;25629;51.444;-2.606;2024-01-10T06:51:23;0.70;99.90
39951;DHT22;25629;51.444;-2.606;2024-01-10T06:53:48;0.70;99.90
39951;DHT22;25629;51.444;-2.606;2024-01-10T06:56:14;0.70;99.90
39951;DHT22;25629;51.444;-2.606;2024-01-10T06:58:39;0.80;99.90
39951;DHT22;25629;51.444;-2.606;2024-01-10T07:01:10;0.80;99.90
39951;DHT22;25629;51.444;-2.606;2024-01-10T07:03:39;0.80;99.90
39951;DHT22;25629;51.444;-2.606;2024-01-10T07:06:04;0.90;99.90
39951;DHT22;25629;51.444;-2.606;2024-01-10T07:08:30;0.80;99.90
39951;DHT22;25629;51.444;-2.606;2024-01-10T07:10:56;0.80;99.90
39951;DHT22;25629;51.444;-2.606;2024-01-10T07:13:22;0.80;99.90
39951;DHT22;25629;51.444;-2.606;2024-01-10T07:15:48;0.80;99.90
39951;DHT22;25629;51.444;-2.606;2024-01-10T07:18:16;0.70;99.90
39951;DHT22;25629;51.444;-2.606;2024-01-10T07:20:42;0.80;99.90
39951;DHT22;25629;51.444;-2.606;2024-01-10T07:23:07;0.70;99.90
39951;DHT22;25629;51.444;-2.606;2024-01-10T07:25:33;0.70;99.90
39951;DHT22;25629;51.444;-2.606;2024-01-10T07:27:59;0.70;99.90
39951;DHT22;25629;51.444;-2.606;2024-01-10T07:30:24;0.70;99.90
39951;DHT22;25629;51.444;-2.606;2024-01-10T07:32:50;0.70;99.90
39951;DHT22;25629;51.444;-2.606;2024-01-10T07:35:16;0.70;99.90
39951;DHT22;25629;51.444;-2.606;2024-01-10T07:37:42;0.70;99.90
39951;DHT22;25629;51.444;-2.606;2024-01-10T07:40:10;0.60;99.90
39951;DHT22;25629;51.444;-2.606;2024-01-10T07:42:36;0.60;99.90
39951;DHT22;25629;51.444;-2.606;2024-01-10T07:45:03;0.60;99.90
39951;DHT22;25629;51.444;-2.606;2024-01-10T07:47:32;0.60;99.90
39951;DHT22;25629;51.444;-2.606;2024-01-10T07:49:59;0.70;99.90
39951;DHT22;25629;51.444;-2.606;2024-01-10T07:52:25;0.70;99.90
39951;DHT22;25629;51.444;-2.606;2024-01-10T07:54:51;0.60;99.90
39951;DHT22;25629;51.444;-2.606;2024-01-10T07:57:16;0.70;99.90
39951;DHT22;25629;51.444;-2.606;2024-01-10T07:59:44;0.70;99.90
39951;DHT22;25629;51.444;-2.606;2024-01-10T08:02:10;0.70;99.90
39951;DHT22;25629;51.444;-2.606;2024-01-10T08:04:37;0.80;99.90
39951;DHT22;25629;51.444;-2.606;2024-01-10T08:07:02;0.80;99.90
39951;DHT22;25629;51.444;-2.606;2024-01-10T08:09:28;0.80;99.90
39951;DHT22;25629;51.444;-2.606;2024-01-10T08:11:53;0.80;99.90
39951;DHT22;25629;51.444;-2.606;2024-01-10T08:14:19;0.90;99.90
39951;DHT22;25629;51.444;-2.606;2024-01-10T08:16:45;0.90;99.90
39951;DHT22;25629;51.444;-2.606;2024-01-10T08:19:11;1.00;99.90
39951;DHT22;25629;51.444;-2.606;2024-01-10T08:21:36;1.00;99.90
39951;DHT22;25629;51.444;-2.606;2024-01-10T08:24:02;1.00;99.90
39951;DHT22;25629;51.444;-2.606;2024-01-10T08:26:28;1.00;99.90
39951;DHT22;25629;51.444;-2.606;2024-01-10T08:28:54;1.10;99.90
39951;DHT22;25629;51.444;-2.606;2024-01-10T08:31:19;1.10;99.90
39951;DHT22;25629;51.444;-2.606;2024-01-10T08:33:45;1.00;99.90
39951;DHT22;25629;51.444;-2.606;2024-01-10T08:36:12;1.10;99.90
39951;DHT22;25629;51.444;-2.606;2024-01-10T08:38:38;1.20;99.90
39951;DHT22;25629;51.444;-2.606;2024-01-10T08:41:03;1.20;99.90
39951;DHT22;25629;51.444;-2.606;2024-01-10T08:43:29;1.20;99.90
39951;DHT22;25629;51.444;-2.606;2024-01-10T08:45:56;1.30;99.90
39951;DHT22;25629;51.444;-2.606;2024-01-10T08:48:23;1.30;99.90
39951;DHT22;25629;51.444;-2.606;2024-01-10T08:50:49;1.40;99.90
39951;DHT22;25629;51.444;-2.606;2024-01-10T08:53:15;1.40;99.90
39951;DHT22;25629;51.444;-2.606;2024-01-10T08:55:41;1.40;99.90
39951;DHT22;25629;51.444;-2.606;2024-01-10T08:58:07;1.40;99.90
39951;DHT22;25629;51.444;-2.606;2024-01-10T09:00:32;1.40;99.90
39951;DHT22;25629;51.444;-2.606;2024-01-10T09:02:59;1.40;99.90
39951;DHT22;25629;51.444;-2.606;2024-01-10T09:05:25;1.50;99.90
39951;DHT22;25629;51.444;-2.606;2024-01-10T09:07:50;1.50;99.90
39951;DHT22;25629;51.444;-2.606;2024-01-10T09:10:16;1.60;99.90
39951;DHT22;25629;51.444;-2.606;2024-01-10T09:12:42;1.70;99.90
39951;DHT22;25629;51.444;-2.606;2024-01-10T09:15:11;1.80;99.90
39951;DHT22;25629;51.444;-2.606;2024-01-10T09:17:39;1.90;99.90
39951;DHT22;25629;51.444;-2.606;2024-01-10T09:20:05;2.00;99.60
39951;DHT22;25629;51.444;-2.606;2024-01-10T09:22:31;2.00;97.60
39951;DHT22;25629;51.444;-2.606;2024-01-10T09:24:56;2.10;94.40
39951;DHT22;25629;51.444;-2.606;2024-01-10T09:27:28;2.10;92.70
39951;DHT22;25629;51.444;-2.606;2024-01-10T09:29:54;2.20;89.50
39951;DHT22;25629;51.444;-2.606;2024-01-10T09:32:19;2.20;88.90
39951;DHT22;25629;51.444;-2.606;2024-01-10T09:34:45;2.30;84.70
39951;DHT22;25629;51.444;-2.606;2024-01-10T09:37:10;2.30;85.00
39951;DHT22;25629;51.444;-2.606;2024-01-10T09:39:36;2.50;79.90
39951;DHT22;25629;51.444;-2.606;2024-01-10T09:42:02;2.50;71.50
39951;DHT22;25629;51.444;-2.606;2024-01-10T09:44:27;2.60;67.00
39951;DHT22;25629;51.444;-2.606;2024-01-10T09:46:54;2.80;58.50
39951;DHT22;25629;51.444;-2.606;2024-01-10T09:49:20;2.80;30.50
39951;DHT22;25629;51.444;-2.606;2024-01-10T09:51:50;2.80;27.70
39951;DHT22;25629;51.444;-2.606;2024-01-10T09:54:16;2.90;27.90
39951;DHT22;25629;51.444;-2.606;2024-01-10T09:56:42;3.00;16.20
39951;DHT22;25629;51.444;-2.606;2024-01-10T09:59:07;3.00;10.80
39951;DHT22;25629;51.444;-2.606;2024-01-10T10:01:36;3.10;8.50
39951;DHT22;25629;51.444;-2.606;2024-01-10T10:04:04;3.20;5.20
39951;DHT22;25629;51.444;-2.606;2024-01-10T10:06:31;3.20;1.00
39951;DHT22;25629;51.444;-2.606;2024-01-10T10:08:56;3.20;1.00
39951;DHT22;25629;51.444;-2.606;2024-01-10T10:11:22;3.30;1.00
39951;DHT22;25629;51.444;-2.606;2024-01-10T10:13:48;3.30;1.00
39951;DHT22;25629;51.444;-2.606;2024-01-10T10:16:13;3.40;1.00
39951;DHT22;25629;51.444;-2.606;2024-01-10T10:18:47;3.50;1.00
39951;DHT22;25629;51.444;-2.606;2024-01-10T10:21:15;3.50;1.00
39951;DHT22;25629;51.444;-2.606;2024-01-10T10:23:42;3.60;1.00
39951;DHT22;25629;51.444;-2.606;2024-01-10T10:26:15;3.50;1.00
39951;DHT22;25629;51.444;-2.606;2024-01-10T10:28:47;3.50;1.00
39951;DHT22;25629;51.444;-2.606;2024-01-10T10:31:12;3.60;1.00
39951;DHT22;25629;51.444;-2.606;2024-01-10T10:33:38;3.70;1.00
39951;DHT22;25629;51.444;-2.606;2024-01-10T10:36:04;3.60;1.00
39951;DHT22;25629;51.444;-2.606;2024-01-10T10:38:30;3.60;1.00
39951;DHT22;25629;51.444;-2.606;2024-01-10T10:40:56;3.70;1.00
39951;DHT22;25629;51.444;-2.606;2024-01-10T10:43:23;3.70;1.00
39951;DHT22;25629;51.444;-2.606;2024-01-10T10:45:49;3.70;1.00
39951;DHT22;25629;51.444;-2.606;2024-01-10T10:48:18;3.80;1.00
39951;DHT22;25629;51.444;-2.606;2024-01-10T10:51:05;3.90;1.00
39951;DHT22;25629;51.444;-2.606;2024-01-10T10:53:34;3.80;1.00
39951;DHT22;25629;51.444;-2.606;2024-01-10T10:56:02;3.80;1.00
39951;DHT22;25629;51.444;-2.606;2024-01-10T10:58:28;3.80;1.00
39951;DHT22;25629;51.444;-2.606;2024-01-10T11:00:55;3.80;1.00
39951;DHT22;25629;51.444;-2.606;2024-01-10T11:03:21;3.90;1.00
39951;DHT22;25629;51.444;-2.606;2024-01-10T11:05:46;4.10;1.00
39951;DHT22;25629;51.444;-2.606;2024-01-10T11:08:12;4.10;99.90
39951;DHT22;25629;51.444;-2.606;2024-01-10T11:10:39;4.20;99.90
39951;DHT22;25629;51.444;-2.606;2024-01-10T11:25:53;5.10;99.90
39951;DHT22;25629;51.444;-2.606;2024-01-10T11:28:18;5.10;87.10
39951;DHT22;25629;51.444;-2.606;2024-01-10T11:30:50;5.30;1.00
39951;DHT22;25629;51.444;-2.606;2024-01-10T11:33:22;5.20;99.90
39951;DHT22;25629;51.444;-2.606;2024-01-10T11:41:09;5.40;1.00
39951;DHT22;25629;51.444;-2.606;2024-01-10T11:43:35;5.40;99.90
39951;DHT22;25629;51.444;-2.606;2024-01-10T11:46:01;5.50;99.90
39951;DHT22;25629;51.444;-2.606;2024-01-10T11:48:31;5.40;99.90
39951;DHT22;25629;51.444;-2.606;2024-01-10T11:50:57;5.40;1.00
39951;DHT22;25629;51.444;-2.606;2024-01-10T11:53:41;5.40;99.90
39951;DHT22;25629;51.444;-2.606;2024-01-10T11:56:14;5.50;99.90
39951;DHT22;25629;51.444;-2.606;2024-01-10T11:58:53;5.50;99.90
39951;DHT22;25629;51.444;-2.606;2024-01-10T12:01:19;5.60;1.00
39951;DHT22;25629;51.444;-2.606;2024-01-10T12:03:44;5.80;99.90
39951;DHT22;25629;51.444;-2.606;2024-01-10T12:06:10;5.80;99.90
39951;DHT22;25629;51.444;-2.606;2024-01-10T12:08:36;5.80;99.90
39951;DHT22;25629;51.444;-2.606;2024-01-10T12:11:02;5.70;1.00
39951;DHT22;25629;51.444;-2.606;2024-01-10T12:13:27;5.70;1.00
39951;DHT22;25629;51.444;-2.606;2024-01-10T12:15:53;5.70;34.50
39951;DHT22;25629;51.444;-2.606;2024-01-10T12:18:19;5.70;99.90
39951;DHT22;25629;51.444;-2.606;2024-01-10T12:20:46;5.80;99.90
39951;DHT22;25629;51.444;-2.606;2024-01-10T12:23:12;5.90;99.90
39951;DHT22;25629;51.444;-2.606;2024-01-10T12:25:38;6.00;1.00
39951;DHT22;25629;51.444;-2.606;2024-01-10T12:28:03;6.10;1.00
39951;DHT22;25629;51.444;-2.606;2024-01-10T12:30:30;6.20;99.90
39951;DHT22;25629;51.444;-2.606;2024-01-10T12:32:58;6.00;99.90
39951;DHT22;25629;51.444;-2.606;2024-01-10T12:35:24;6.00;99.90
39951;DHT22;25629;51.444;-2.606;2024-01-10T12:37:53;6.10;1.00
39951;DHT22;25629;51.444;-2.606;2024-01-10T12:40:19;6.10;1.00
39951;DHT22;25629;51.444;-2.606;2024-01-10T12:42:44;5.90;1.00
39951;DHT22;25629;51.444;-2.606;2024-01-10T12:45:20;5.70;1.00
39951;DHT22;25629;51.444;-2.606;2024-01-10T12:47:46;5.50;1.00
39951;DHT22;25629;51.444;-2.606;2024-01-10T12:50:12;5.50;99.90
39951;DHT22;25629;51.444;-2.606;2024-01-10T12:52:40;5.40;1.00
39951;DHT22;25629;51.444;-2.606;2024-01-10T12:55:08;5.40;99.90
39951;DHT22;25629;51.444;-2.606;2024-01-10T12:57:33;5.50;99.90
39951;DHT22;25629;51.444;-2.606;2024-01-10T12:59:59;5.40;1.00
39951;DHT22;25629;51.444;-2.606;2024-01-10T13:02:24;5.50;1.00
39951;DHT22;25629;51.444;-2.606;2024-01-10T13:04:50;5.50;99.90
39951;DHT22;25629;51.444;-2.606;2024-01-10T13:07:15;5.50;1.00
39951;DHT22;25629;51.444;-2.606;2024-01-10T13:09:41;5.50;99.90
39951;DHT22;25629;51.444;-2.606;2024-01-10T13:12:07;5.60;1.00
39951;DHT22;25629;51.444;-2.606;2024-01-10T13:14:33;5.70;99.90
39951;DHT22;25629;51.444;-2.606;2024-01-10T13:16:59;5.70;99.90
39951;DHT22;25629;51.444;-2.606;2024-01-10T13:19:24;5.80;1.00
39951;DHT22;25629;51.444;-2.606;2024-01-10T13:21:50;5.90;1.00
39951;DHT22;25629;51.444;-2.606;2024-01-10T13:24:16;5.90;1.00
39951;DHT22;25629;51.444;-2.606;2024-01-10T13:26:41;5.90;1.00
39951;DHT22;25629;51.444;-2.606;2024-01-10T13:29:07;5.80;1.00
39951;DHT22;25629;51.444;-2.606;2024-01-10T13:31:32;5.80;99.90
39951;DHT22;25629;51.444;-2.606;2024-01-10T13:33:58;5.80;99.90
39951;DHT22;25629;51.444;-2.606;2024-01-10T13:36:24;5.80;99.90
39951;DHT22;25629;51.444;-2.606;2024-01-10T13:38:50;5.70;1.00
39951;DHT22;25629;51.444;-2.606;2024-01-10T13:41:15;5.70;99.90
39951;DHT22;25629;51.444;-2.606;2024-01-10T13:43:41;5.60;99.90
39951;DHT22;25629;51.444;-2.606;2024-01-10T13:46:07;5.50;1.00
39951;DHT22;25629;51.444;-2.606;2024-01-10T13:48:32;5.60;99.90
39951;DHT22;25629;51.444;-2.606;2024-01-10T13:50:58;5.60;99.90
39951;DHT22;25629;51.444;-2.606;2024-01-10T13:53:23;5.60;99.90
39951;DHT22;25629;51.444;-2.606;2024-01-10T13:55:49;5.50;11.60
39951;DHT22;25629;51.444;-2.606;2024-01-10T13:58:15;5.50;99.90
39951;DHT22;25629;51.444;-2.606;2024-01-10T14:00:41;5.50;99.90
39951;DHT22;25629;51.444;-2.606;2024-01-10T14:03:06;5.40;99.90
39951;DHT22;25629;51.444;-2.606;2024-01-10T14:05:32;5.40;1.00
39951;DHT22;25629;51.444;-2.606;2024-01-10T14:07:57;5.30;99.90
39951;DHT22;25629;51.444;-2.606;2024-01-10T14:10:23;5.20;99.90
39951;DHT22;25629;51.444;-2.606;2024-01-10T14:12:49;5.20;1.00
39951;DHT22;25629;51.444;-2.606;2024-01-10T14:15:14;5.20;48.00
39951;DHT22;25629;51.444;-2.606;2024-01-10T14:17:40;5.20;99.90
39951;DHT22;25629;51.444;-2.606;2024-01-10T14:20:06;5.20;99.90
39951;DHT22;25629;51.444;-2.606;2024-01-10T14:22:35;5.20;99.90
39951;DHT22;25629;51.444;-2.606;2024-01-10T14:25:00;5.30;1.00
39951;DHT22;25629;51.444;-2.606;2024-01-10T14:27:26;5.30;99.90
39951;DHT22;25629;51.444;-2.606;2024-01-10T14:29:52;5.30;99.90
39951;DHT22;25629;51.444;-2.606;2024-01-10T14:32:17;5.30;99.90
39951;DHT22;25629;51.444;-2.606;2024-01-10T14:34:43;5.30;99.90
39951;DHT22;25629;51.444;-2.606;2024-01-10T14:37:10;5.20;99.90
39951;DHT22;25629;51.444;-2.606;2024-01-10T14:39:35;5.20;99.90
39951;DHT22;25629;51.444;-2.606;2024-01-10T14:42:06;5.20;1.00
39951;DHT22;25629;51.444;-2.606;2024-01-10T14:44:34;5.20;99.90
39951;DHT22;25629;51.444;-2.606;2024-01-10T14:47:00;5.20;1.00
39951;DHT22;25629;51.444;-2.606;2024-01-10T14:49:26;5.20;99.90
39951;DHT22;25629;51.444;-2.606;2024-01-10T14:51:51;5.20;99.90
39951;DHT22;25629;51.444;-2.606;2024-01-10T14:54:17;5.10;99.90
39951;DHT22;25629;51.444;-2.606;2024-01-10T14:56:43;5.20;99.90
39951;DHT22;25629;51.444;-2.606;2024-01-10T14:59:10;5.10;99.90
39951;DHT22;25629;51.444;-2.606;2024-01-10T15:01:35;5.10;99.90
39951;DHT22;25629;51.444;-2.606;2024-01-10T15:04:01;5.10;99.90
39951;DHT22;25629;51.444;-2.606;2024-01-10T15:06:26;5.10;99.90
39951;DHT22;25629;51.444;-2.606;2024-01-10T15:08:52;5.00;1.00
39951;DHT22;25629;51.444;-2.606;2024-01-10T15:11:17;5.00;99.90
39951;DHT22;25629;51.444;-2.606;2024-01-10T15:13:44;5.00;1.00
39951;DHT22;25629;51.444;-2.606;2024-01-10T15:16:09;4.90;99.90
39951;DHT22;25629;51.444;-2.606;2024-01-10T15:18:39;4.90;1.00
39951;DHT22;25629;51.444;-2.606;2024-01-10T15:21:05;5.00;99.90
39951;DHT22;25629;51.444;-2.606;2024-01-10T15:23:31;4.90;99.90
39951;DHT22;25629;51.444;-2.606;2024-01-10T15:25:57;4.90;53.10
39951;DHT22;25629;51.444;-2.606;2024-01-10T15:28:22;4.80;99.90
39951;DHT22;25629;51.444;-2.606;2024-01-10T15:30:48;4.80;99.90
39951;DHT22;25629;51.444;-2.606;2024-01-10T15:33:14;4.80;99.90
39951;DHT22;25629;51.444;-2.606;2024-01-10T15:35:39;4.80;99.90
39951;DHT22;25629;51.444;-2.606;2024-01-10T15:38:05;4.70;34.40
39951;DHT22;25629;51.444;-2.606;2024-01-10T15:40:30;4.70;99.90
39951;DHT22;25629;51.444;-2.606;2024-01-10T15:42:56;4.70;29.00
39951;DHT22;25629;51.444;-2.606;2024-01-10T15:45:21;4.70;41.30